sensor_id;sensor_type;location;lat;lon;timestamp;temperature;humidity
25914;DHT22;13718;50.922;5.346;2023-05-07T00:00:08;15.30;99.90
25914;DHT22;13718;50.922;5.346;2023-05-07T00:02:34;15.40;99.90
25914;DHT22;13718;50.922;5.346;2023-05-07T00:05:01;15.40;99.90
25914;DHT22;13718;50.922;5.346;2023-05-07T00:07:27;15.40;99.90
25914;DHT22;13718;50.922;5.346;2023-05-07T00:09:53;15.40;99.90
25914;DHT22;13718;50.922;5.346;2023-05-07T00:12:19;15.40;99.90
25914;DHT22;13718;50.922;5.346;2023-05-07T00:14:44;15.40;99.90
25914;DHT22;13718;50.922;5.346;2023-05-07T00:17:10;15.40;99.90
25914;DHT22;13718;50.922;5.346;2023-05-07T00:19:36;15.40;99.90
25914;DHT22;13718;50.922;5.346;2023-05-07T00:22:02;15.50;99.90
25914;DHT22;13718;50.922;5.346;2023-05-07T00:24:27;15.50;99.90
25914;DHT22;13718;50.922;5.346;2023-05-07T00:26:53;15.50;99.90
25914;DHT22;13718;50.922;5.346;2023-05-07T00:29:18;15.60;99.90
25914;DHT22;13718;50.922;5.346;2023-05-07T00:31:44;15.60;99.90
25914;DHT22;13718;50.922;5.346;2023-05-07T00:34:10;15.60;99.90
25914;DHT22;13718;50.922;5.346;2023-05-07T00:36:35;15.60;99.90
25914;DHT22;13718;50.922;5.346;2023-05-07T00:39:01;15.60;99.90
25914;DHT22;13718;50.922;5.346;2023-05-07T00:41:29;15.60;99.90
25914;DHT22;13718;50.922;5.346;2023-05-07T00:43:56;15.70;99.90
25914;DHT22;13718;50.922;5.346;2023-05-07T00:46:23;15.80;99.90
25914;DHT22;13718;50.922;5.346;2023-05-07T00:48:50;15.90;99.90
25914;DHT22;13718;50.922;5.346;2023-05-07T00:51:17;15.90;99.90
25914;DHT22;13718;50.922;5.346;2023-05-07T00:53:43;15.80;99.90
25914;DHT22;13718;50.922;5.346;2023-05-07T00:56:09;15.90;99.90
25914;DHT22;13718;50.922;5.346;2023-05-07T00:58:35;16.00;99.90
25914;DHT22;13718;50.922;5.346;2023-05-07T01:01:02;16.00;99.90
25914;DHT22;13718;50.922;5.346;2023-05-07T01:03:27;16.10;99.90
25914;DHT22;13718;50.922;5.346;2023-05-07T01:05:54;16.00;99.90
25914;DHT22;13718;50.922;5.346;2023-05-07T01:08:22;16.00;99.90
25914;DHT22;13718;50.922;5.346;2023-05-07T01:10:48;15.90;99.90
25914;DHT22;13718;50.922;5.346;2023-05-07T01:13:14;15.90;99.90
25914;DHT22;13718;50.922;5.346;2023-05-07T01:15:40;15.80;99.90
25914;DHT22;13718;50.922;5.346;2023-05-07T01:18:06;15.80;99.90
25914;DHT22;13718;50.922;5.346;2023-05-07T01:20:32;15.80;99.90
25914;DHT22;13718;50.922;5.346;2023-05-07T01:22:59;16.00;99.90
25914;DHT22;13718;50.922;5.346;2023-05-07T01:25:25;16.00;99.90
25914;DHT22;13718;50.922;5.346;2023-05-07T01:27:51;15.90;99.90
25914;DHT22;13718;50.922;5.346;2023-05-07T01:30:18;15.90;99.90
25914;DHT22;13718;50.922;5.346;2023-05-07T01:33:02;15.90;99.90
25914;DHT22;13718;50.922;5.346;2023-05-07T01:35:34;15.90;99.90
25914;DHT22;13718;50.922;5.346;2023-05-07T01:38:01;15.90;99.90
25914;DHT22;13718;50.922;5.346;2023-05-07T01:40:30;15.80;99.90
25914;DHT22;13718;50.922;5.346;2023-05-07T01:42:55;15.70;99.90
25914;DHT22;13718;50.922;5.346;2023-05-07T01:45:21;15.60;99.90
25914;DHT22;13718;50.922;5.346;2023-05-07T01:47:48;15.60;99.90
25914;DHT22;13718;50.922;5.346;2023-05-07T01:50:16;15.70;99.90
25914;DHT22;13718;50.922;5.346;2023-05-07T01:52:42;15.70;99.90
25914;DHT22;13718;50.922;5.346;2023-05-07T01:55:08;15.60;99.90
25914;DHT22;13718;50.922;5.346;2023-05-07T01:57:34;15.60;99.90
25914;DHT22;13718;50.922;5.346;2023-05-07T01:59:59;15.60;99.90
25914;DHT22;13718;50.922;5.346;2023-05-07T02:02:25;15.60;99.90
25914;DHT22;13718;50.922;5.346;2023-05-07T02:04:50;15.60;99.90
25914;DHT22;13718;50.922;5.346;2023-05-07T02:07:16;15.60;99.90
25914;DHT22;13718;50.922;5.346;2023-05-07T02:09:42;15.70;99.90
25914;DHT22;13718;50.922;5.346;2023-05-07T02:12:07;15.70;99.90
25914;DHT22;13718;50.922;5.346;2023-05-07T02:14:33;15.70;99.90
25914;DHT22;13718;50.922;5.346;2023-05-07T02:16:58;15.60;99.90
25914;DHT22;13718;50.922;5.346;2023-05-07T02:19:24;15.60;99.90
25914;DHT22;13718;50.922;5.346;2023-05-07T02:21:50;15.60;99.90
25914;DHT22;13718;50.922;5.346;2023-05-07T02:24:16;15.60;99.90
25914;DHT22;13718;50.922;5.346;2023-05-07T02:26:41;15.50;99.90
25914;DHT22;13718;50.922;5.346;2023-05-07T02:29:07;15.50;99.90
25914;DHT22;13718;50.922;5.346;2023-05-07T02:31:33;15.50;99.90
25914;DHT22;13718;50.922;5.346;2023-05-07T02:33:59;15.50;99.90
25914;DHT22;13718;50.922;5.346;2023-05-07T02:36:25;15.40;99.90
25914;DHT22;13718;50.922;5.346;2023-05-07T02:38:52;15.40;99.90
25914;DHT22;13718;50.922;5.346;2023-05-07T02:41:18;15.40;99.90
25914;DHT22;13718;50.922;5.346;2023-05-07T02:43:43;15.40;99.90
25914;DHT22;13718;50.922;5.346;2023-05-07T02:46:09;15.40;99.90
25914;DHT22;13718;50.922;5.346;2023-05-07T02:48:35;15.50;99.90
25914;DHT22;13718;50.922;5.346;2023-05-07T02:51:01;15.50;99.90
25914;DHT22;13718;50.922;5.346;2023-05-07T02:53:27;15.60;99.90
25914;DHT22;13718;50.922;5.346;2023-05-07T02:55:57;15.60;99.90
25914;DHT22;13718;50.922;5.346;2023-05-07T02:58:23;15.50;99.90
25914;DHT22;13718;50.922;5.346;2023-05-07T03:00:48;15.40;99.90
25914;DHT22;13718;50.922;5.346;2023-05-07T03:03:15;15.30;99.90
25914;DHT22;13718;50.922;5.346;2023-05-07T03:05:41;15.30;99.90
25914;DHT22;13718;50.922;5.346;2023-05-07T03:08:07;15.30;99.90
25914;DHT22;13718;50.922;5.346;2023-05-07T03:10:33;15.30;99.90
25914;DHT22;13718;50.922;5.346;2023-05-07T03:12:59;15.30;99.90
25914;DHT22;13718;50.922;5.346;2023-05-07T03:15:24;15.50;99.90
25914;DHT22;13718;50.922;5.346;2023-05-07T03:17:50;15.60;99.90
25914;DHT22;13718;50.922;5.346;2023-05-07T03:20:16;15.60;99.90
25914;DHT22;13718;50.922;5.346;2023-05-07T03:22:42;15.50;99.90
25914;DHT22;13718;50.922;5.346;2023-05-07T03:25:08;15.60;99.90
25914;DHT22;13718;50.922;5.346;2023-05-07T03:27:34;15.50;99.90
25914;DHT22;13718;50.922;5.346;2023-05-07T03:30:00;15.50;99.90
25914;DHT22;13718;50.922;5.346;2023-05-07T03:32:26;15.50;99.90
25914;DHT22;13718;50.922;5.346;2023-05-07T03:34:51;15.60;99.90
25914;DHT22;13718;50.922;5.346;2023-05-07T03:37:18;15.60;99.90
25914;DHT22;13718;50.922;5.346;2023-05-07T03:39:43;15.60;99.90
25914;DHT22;13718;50.922;5.346;2023-05-07T03:42:09;15.70;99.90
25914;DHT22;13718;50.922;5.346;2023-05-07T03:44:35;15.60;99.90
25914;DHT22;13718;50.922;5.346;2023-05-07T03:47:02;15.50;99.90
25914;DHT22;13718;50.922;5.346;2023-05-07T03:49:28;15.50;99.90
25914;DHT22;13718;50.922;5.346;2023-05-07T03:51:53;15.50;99.90
25914;DHT22;13718;50.922;5.346;2023-05-07T03:54:19;15.50;99.90
25914;DHT22;13718;50.922;5.346;2023-05-07T03:56:45;15.50;99.90
25914;DHT22;13718;50.922;5.346;2023-05-07T03:59:11;15.50;99.90
25914;DHT22;13718;50.922;5.346;2023-05-07T04:01:37;15.40;99.90
25914;DHT22;13718;50.922;5.346;2023-05-07T04:04:02;15.50;99.90
25914;DHT22;13718;50.922;5.346;2023-05-07T04:06:29;15.50;99.90
25914;DHT22;13718;50.922;5.346;2023-05-07T04:08:55;15.50;99.90
25914;DHT22;13718;50.922;5.346;2023-05-07T04:11:21;15.50;99.90
25914;DHT22;13718;50.922;5.346;2023-05-07T04:13:46;15.40;99.90
25914;DHT22;13718;50.922;5.346;2023-05-07T04:16:12;15.40;99.90
25914;DHT22;13718;50.922;5.346;2023-05-07T04:18:38;15.40;99.90
25914;DHT22;13718;50.922;5.346;2023-05-07T04:21:04;15.40;99.90
25914;DHT22;13718;50.922;5.346;2023-05-07T04:23:30;15.40;99.90
25914;DHT22;13718;50.922;5.346;2023-05-07T04:25:56;15.50;99.90
25914;DHT22;13718;50.922;5.346;2023-05-07T04:28:22;15.50;99.90
25914;DHT22;13718;50.922;5.346;2023-05-07T04:30:48;15.50;99.90
25914;DHT22;13718;50.922;5.346;2023-05-07T04:33:14;15.60;99.90
25914;DHT22;13718;50.922;5.346;2023-05-07T04:35:42;15.60;99.90
25914;DHT22;13718;50.922;5.346;2023-05-07T04:38:08;15.70;99.90
25914;DHT22;13718;50.922;5.346;2023-05-07T04:40:35;15.70;99.90
25914;DHT22;13718;50.922;5.346;2023-05-07T04:43:01;15.70;99.90
25914;DHT22;13718;50.922;5.346;2023-05-07T04:45:27;15.80;99.90
25914;DHT22;13718;50.922;5.346;2023-05-07T04:47:52;15.80;99.90
25914;DHT22;13718;50.922;5.346;2023-05-07T04:50:18;15.80;99.90
25914;DHT22;13718;50.922;5.346;2023-05-07T04:52:45;16.00;99.90
25914;DHT22;13718;50.922;5.346;2023-05-07T04:55:11;16.00;99.90
25914;DHT22;13718;50.922;5.346;2023-05-07T04:57:36;16.00;99.90
25914;DHT22;13718;50.922;5.346;2023-05-07T05:00:05;16.10;99.90
25914;DHT22;13718;50.922;5.346;2023-05-07T05:02:31;16.00;99.90
25914;DHT22;13718;50.922;5.346;2023-05-07T05:04:56;16.00;99.90
25914;DHT22;13718;50.922;5.346;2023-05-07T05:07:22;16.00;99.90
25914;DHT22;13718;50.922;5.346;2023-05-07T05:09:48;16.10;99.90
25914;DHT22;13718;50.922;5.346;2023-05-07T05:12:13;16.10;99.90
25914;DHT22;13718;50.922;5.346;2023-05-07T05:14:39;16.20;99.90
25914;DHT22;13718;50.922;5.346;2023-05-07T05:17:04;16.20;99.90
25914;DHT22;13718;50.922;5.346;2023-05-07T05:19:30;16.30;99.90
25914;DHT22;13718;50.922;5.346;2023-05-07T05:21:55;16.30;99.90
25914;DHT22;13718;50.922;5.346;2023-05-07T05:24:21;16.40;99.90
25914;DHT22;13718;50.922;5.346;2023-05-07T05:26:47;16.50;99.90
25914;DHT22;13718;50.922;5.346;2023-05-07T05:29:12;16.60;99.90
25914;DHT22;13718;50.922;5.346;2023-05-07T05:31:38;16.70;99.90
25914;DHT22;13718;50.922;5.346;2023-05-07T05:34:03;16.80;99.90
25914;DHT22;13718;50.922;5.346;2023-05-07T05:36:29;16.80;99.90
25914;DHT22;13718;50.922;5.346;2023-05-07T05:38:56;16.90;99.90
25914;DHT22;13718;50.922;5.346;2023-05-07T05:41:21;16.90;99.90
25914;DHT22;13718;50.922;5.346;2023-05-07T05:43:47;17.10;99.90
25914;DHT22;13718;50.922;5.346;2023-05-07T05:46:12;17.20;99.90
25914;DHT22;13718;50.922;5.346;2023-05-07T05:48:38;17.40;99.90
25914;DHT22;13718;50.922;5.346;2023-05-07T05:51:03;17.60;99.90
25914;DHT22;13718;50.922;5.346;2023-05-07T05:53:29;17.90;99.90
25914;DHT22;13718;50.922;5.346;2023-05-07T05:55:55;18.30;99.90
25914;DHT22;13718;50.922;5.346;2023-05-07T05:58:20;18.60;99.90
25914;DHT22;13718;50.922;5.346;2023-05-07T06:00:46;18.80;99.90
25914;DHT22;13718;50.922;5.346;2023-05-07T06:03:13;19.00;99.90
25914;DHT22;13718;50.922;5.346;2023-05-07T06:05:39;19.10;99.90
25914;DHT22;13718;50.922;5.346;2023-05-07T06:08:05;19.20;99.90
25914;DHT22;13718;50.922;5.346;2023-05-07T06:10:30;19.20;99.90
25914;DHT22;13718;50.922;5.346;2023-05-07T06:12:56;19.20;99.90
25914;DHT22;13718;50.922;5.346;2023-05-07T06:15:22;19.20;99.90
25914;DHT22;13718;50.922;5.346;2023-05-07T06:17:48;19.20;99.90
25914;DHT22;13718;50.922;5.346;2023-05-07T06:20:14;19.30;99.90
25914;DHT22;13718;50.922;5.346;2023-05-07T06:22:40;19.40;99.90
25914;DHT22;13718;50.922;5.346;2023-05-07T06:25:06;19.40;99.90
25914;DHT22;13718;50.922;5.346;2023-05-07T06:27:31;19.50;99.90
25914;DHT22;13718;50.922;5.346;2023-05-07T06:29:57;19.70;99.90
25914;DHT22;13718;50.922;5.346;2023-05-07T06:32:23;19.80;99.90
25914;DHT22;13718;50.922;5.346;2023-05-07T06:34:48;20.10;99.90
25914;DHT22;13718;50.922;5.346;2023-05-07T06:37:14;20.40;99.90
25914;DHT22;13718;50.922;5.346;2023-05-07T06:39:39;20.60;99.90
25914;DHT22;13718;50.922;5.346;2023-05-07T06:42:05;20.70;99.90
25914;DHT22;13718;50.922;5.346;2023-05-07T06:44:31;20.90;99.90
25914;DHT22;13718;50.922;5.346;2023-05-07T06:46:57;20.90;99.90
25914;DHT22;13718;50.922;5.346;2023-05-07T06:49:23;21.00;99.90
25914;DHT22;13718;50.922;5.346;2023-05-07T06:51:48;20.90;99.90
25914;DHT22;13718;50.922;5.346;2023-05-07T06:54:14;20.80;99.90
25914;DHT22;13718;50.922;5.346;2023-05-07T06:56:39;20.70;99.90
25914;DHT22;13718;50.922;5.346;2023-05-07T06:59:06;20.50;99.90
25914;DHT22;13718;50.922;5.346;2023-05-07T07:01:32;20.40;99.90
25914;DHT22;13718;50.922;5.346;2023-05-07T07:03:57;20.40;99.90
25914;DHT22;13718;50.922;5.346;2023-05-07T07:06:23;20.40;99.90
25914;DHT22;13718;50.922;5.346;2023-05-07T07:08:49;20.40;99.90
25914;DHT22;13718;50.922;5.346;2023-05-07T07:11:15;20.40;99.90
25914;DHT22;13718;50.922;5.346;2023-05-07T07:13:41;20.40;99.90
25914;DHT22;13718;50.922;5.346;2023-05-07T07:16:06;20.50;99.90
25914;DHT22;13718;50.922;5.346;2023-05-07T07:18:32;20.70;99.90
25914;DHT22;13718;50.922;5.346;2023-05-07T07:20:57;20.80;99.90
25914;DHT22;13718;50.922;5.346;2023-05-07T07:23:23;20.90;99.90
25914;DHT22;13718;50.922;5.346;2023-05-07T07:25:49;21.00;99.90
25914;DHT22;13718;50.922;5.346;2023-05-07T07:28:14;21.10;99.90
25914;DHT22;13718;50.922;5.346;2023-05-07T07:30:40;21.20;99.90
25914;DHT22;13718;50.922;5.346;2023-05-07T07:33:06;21.30;99.90
25914;DHT22;13718;50.922;5.346;2023-05-07T07:35:32;21.40;99.90
25914;DHT22;13718;50.922;5.346;2023-05-07T07:37:58;21.50;99.90
25914;DHT22;13718;50.922;5.346;2023-05-07T07:40:24;21.50;99.90
25914;DHT22;13718;50.922;5.346;2023-05-07T07:42:50;21.40;99.90
25914;DHT22;13718;50.922;5.346;2023-05-07T07:45:16;21.40;99.90
25914;DHT22;13718;50.922;5.346;2023-05-07T07:47:41;21.40;99.90
25914;DHT22;13718;50.922;5.346;2023-05-07T07:50:07;21.40;99.90
25914;DHT22;13718;50.922;5.346;2023-05-07T07:52:33;21.40;99.90
25914;DHT22;13718;50.922;5.346;2023-05-07T07:54:59;21.50;99.90
25914;DHT22;13718;50.922;5.346;2023-05-07T07:57:25;21.50;99.90
25914;DHT22;13718;50.922;5.346;2023-05-07T07:59:50;21.70;99.90
25914;DHT22;13718;50.922;5.346;2023-05-07T08:02:17;21.90;99.90
25914;DHT22;13718;50.922;5.346;2023-05-07T08:04:43;22.10;99.90
25914;DHT22;13718;50.922;5.346;2023-05-07T08:07:09;22.30;99.90
25914;DHT22;13718;50.922;5.346;2023-05-07T08:09:37;22.50;99.90
25914;DHT22;13718;50.922;5.346;2023-05-07T08:12:03;22.70;99.90
25914;DHT22;13718;50.922;5.346;2023-05-07T08:14:28;23.00;99.90
25914;DHT22;13718;50.922;5.346;2023-05-07T08:16:55;23.40;99.90
25914;DHT22;13718;50.922;5.346;2023-05-07T08:19:21;23.70;99.90
25914;DHT22;13718;50.922;5.346;2023-05-07T08:21:47;23.90;99.90
25914;DHT22;13718;50.922;5.346;2023-05-07T08:24:16;24.20;99.90
25914;DHT22;13718;50.922;5.346;2023-05-07T08:26:43;24.30;99.90
25914;DHT22;13718;50.922;5.346;2023-05-07T08:29:09;24.60;99.90
25914;DHT22;13718;50.922;5.346;2023-05-07T08:31:35;24.70;99.90
25914;DHT22;13718;50.922;5.346;2023-05-07T08:34:00;24.80;99.90
25914;DHT22;13718;50.922;5.346;2023-05-07T08:36:26;24.80;99.90
25914;DHT22;13718;50.922;5.346;2023-05-07T08:38:52;24.70;99.90
25914;DHT22;13718;50.922;5.346;2023-05-07T08:41:18;24.60;99.90
25914;DHT22;13718;50.922;5.346;2023-05-07T08:43:47;24.60;99.90
25914;DHT22;13718;50.922;5.346;2023-05-07T08:46:20;24.50;99.90
25914;DHT22;13718;50.922;5.346;2023-05-07T08:48:48;24.50;99.90
25914;DHT22;13718;50.922;5.346;2023-05-07T08:51:17;24.60;99.90
25914;DHT22;13718;50.922;5.346;2023-05-07T08:53:43;24.50;99.90
25914;DHT22;13718;50.922;5.346;2023-05-07T08:56:09;24.60;99.90
25914;DHT22;13718;50.922;5.346;2023-05-07T08:58:35;25.10;99.90
25914;DHT22;13718;50.922;5.346;2023-05-07T09:01:06;26.10;99.90
25914;DHT22;13718;50.922;5.346;2023-05-07T09:03:32;27.50;99.70
25914;DHT22;13718;50.922;5.346;2023-05-07T09:05:58;28.80;97.30
25914;DHT22;13718;50.922;5.346;2023-05-07T09:08:27;29.80;94.30
25914;DHT22;13718;50.922;5.346;2023-05-07T09:10:53;30.60;92.50
25914;DHT22;13718;50.922;5.346;2023-05-07T09:13:19;31.20;91.00
25914;DHT22;13718;50.922;5.346;2023-05-07T09:15:45;31.50;88.60
25914;DHT22;13718;50.922;5.346;2023-05-07T09:18:11;31.40;86.00
25914;DHT22;13718;50.922;5.346;2023-05-07T09:20:37;30.90;86.80
25914;DHT22;13718;50.922;5.346;2023-05-07T09:23:03;30.60;86.80
25914;DHT22;13718;50.922;5.346;2023-05-07T09:25:30;30.50;85.70
25914;DHT22;13718;50.922;5.346;2023-05-07T09:27:57;30.60;84.90
25914;DHT22;13718;50.922;5.346;2023-05-07T09:30:22;30.30;85.70
25914;DHT22;13718;50.922;5.346;2023-05-07T09:32:48;30.00;88.20
25914;DHT22;13718;50.922;5.346;2023-05-07T09:35:15;29.50;88.60
25914;DHT22;13718;50.922;5.346;2023-05-07T09:37:42;29.10;89.30
25914;DHT22;13718;50.922;5.346;2023-05-07T09:40:08;28.90;89.30
25914;DHT22;13718;50.922;5.346;2023-05-07T09:42:45;28.60;90.10
25914;DHT22;13718;50.922;5.346;2023-05-07T09:45:12;28.40;90.80
25914;DHT22;13718;50.922;5.346;2023-05-07T09:47:39;28.30;90.60
25914;DHT22;13718;50.922;5.346;2023-05-07T09:50:08;28.20;90.50
25914;DHT22;13718;50.922;5.346;2023-05-07T09:52:36;27.90;90.30
25914;DHT22;13718;50.922;5.346;2023-05-07T09:55:02;27.80;90.60
25914;DHT22;13718;50.922;5.346;2023-05-07T09:57:29;27.60;90.90
25914;DHT22;13718;50.922;5.346;2023-05-07T09:59:56;27.50;90.50
25914;DHT22;13718;50.922;5.346;2023-05-07T10:02:23;27.40;90.50
25914;DHT22;13718;50.922;5.346;2023-05-07T10:04:51;27.20;90.50
25914;DHT22;13718;50.922;5.346;2023-05-07T10:07:18;26.80;91.10
25914;DHT22;13718;50.922;5.346;2023-05-07T10:09:44;26.50;91.70
25914;DHT22;13718;50.922;5.346;2023-05-07T10:12:11;26.40;92.00
25914;DHT22;13718;50.922;5.346;2023-05-07T10:14:37;26.30;92.10
25914;DHT22;13718;50.922;5.346;2023-05-07T10:17:03;26.20;92.50
25914;DHT22;13718;50.922;5.346;2023-05-07T10:19:29;26.00;92.70
25914;DHT22;13718;50.922;5.346;2023-05-07T10:22:01;26.00;92.80
25914;DHT22;13718;50.922;5.346;2023-05-07T10:24:32;26.00;92.70
25914;DHT22;13718;50.922;5.346;2023-05-07T10:27:00;25.80;92.80
25914;DHT22;13718;50.922;5.346;2023-05-07T10:34:32;25.50;94.00
25914;DHT22;13718;50.922;5.346;2023-05-07T10:37:00;25.30;94.70
25914;DHT22;13718;50.922;5.346;2023-05-07T10:39:27;25.20;94.90
25914;DHT22;13718;50.922;5.346;2023-05-07T10:41:52;25.00;94.70
25914;DHT22;13718;50.922;5.346;2023-05-07T10:44:28;25.00;94.60
25914;DHT22;13718;50.922;5.346;2023-05-07T10:47:08;24.90;94.50
25914;DHT22;13718;50.922;5.346;2023-05-07T10:52:17;24.80;94.90
25914;DHT22;13718;50.922;5.346;2023-05-07T10:54:44;24.80;94.90
25914;DHT22;13718;50.922;5.346;2023-05-07T10:57:33;24.70;95.10
25914;DHT22;13718;50.922;5.346;2023-05-07T10:59:59;24.70;95.10
25914;DHT22;13718;50.922;5.346;2023-05-07T11:05:29;24.40;96.10
25914;DHT22;13718;50.922;5.346;2023-05-07T11:07:56;24.30;96.70
25914;DHT22;13718;50.922;5.346;2023-05-07T11:10:22;24.10;97.10
25914;DHT22;13718;50.922;5.346;2023-05-07T11:12:52;23.90;97.30
25914;DHT22;13718;50.922;5.346;2023-05-07T11:15:35;23.90;97.90
25914;DHT22;13718;50.922;5.346;2023-05-07T11:18:01;23.70;98.60
25914;DHT22;13718;50.922;5.346;2023-05-07T11:20:48;23.60;99.90
25914;DHT22;13718;50.922;5.346;2023-05-07T11:26:07;23.30;99.90
25914;DHT22;13718;50.922;5.346;2023-05-07T11:28:40;23.20;99.90
25914;DHT22;13718;50.922;5.346;2023-05-07T11:31:07;22.90;99.90
25914;DHT22;13718;50.922;5.346;2023-05-07T11:33:34;22.80;99.90
25914;DHT22;13718;50.922;5.346;2023-05-07T11:36:01;22.70;99.90
25914;DHT22;13718;50.922;5.346;2023-05-07T11:38:28;22.60;99.90
25914;DHT22;13718;50.922;5.346;2023-05-07T11:40:57;22.70;99.90
25914;DHT22;13718;50.922;5.346;2023-05-07T11:43:24;22.70;99.90
25914;DHT22;13718;50.922;5.346;2023-05-07T11:45:50;22.70;99.90
25914;DHT22;13718;50.922;5.346;2023-05-07T11:48:16;22.50;99.90
25914;DHT22;13718;50.922;5.346;2023-05-07T11:51:03;22.50;99.90
25914;DHT22;13718;50.922;5.346;2023-05-07T11:53:39;22.50;99.90
25914;DHT22;13718;50.922;5.346;2023-05-07T11:56:09;22.50;99.90
25914;DHT22;13718;50.922;5.346;2023-05-07T11:58:35;22.50;99.90
25914;DHT22;13718;50.922;5.346;2023-05-07T12:01:01;22.50;99.90
25914;DHT22;13718;50.922;5.346;2023-05-07T12:03:27;22.60;99.90
25914;DHT22;13718;50.922;5.346;2023-05-07T12:05:53;22.70;99.90
25914;DHT22;13718;50.922;5.346;2023-05-07T12:08:20;22.80;99.90
25914;DHT22;13718;50.922;5.346;2023-05-07T12:10:48;22.90;99.90
25914;DHT22;13718;50.922;5.346;2023-05-07T12:15:42;23.10;99.90
25914;DHT22;13718;50.922;5.346;2023-05-07T12:18:08;23.10;99.90
25914;DHT22;13718;50.922;5.346;2023-05-07T12:20:35;23.10;99.90
25914;DHT22;13718;50.922;5.346;2023-05-07T12:23:01;23.10;99.90
25914;DHT22;13718;50.922;5.346;2023-05-07T12:25:36;23.20;99.90
25914;DHT22;13718;50.922;5.346;2023-05-07T12:28:03;23.20;99.90
25914;DHT22;13718;50.922;5.346;2023-05-07T12:30:36;23.20;99.90
25914;DHT22;13718;50.922;5.346;2023-05-07T12:33:02;23.10;99.90
25914;DHT22;13718;50.922;5.346;2023-05-07T12:35:32;23.10;99.90
25914;DHT22;13718;50.922;5.346;2023-05-07T12:38:01;23.10;99.90
25914;DHT22;13718;50.922;5.346;2023-05-07T12:40:49;23.10;99.90
25914;DHT22;13718;50.922;5.346;2023-05-07T12:43:17;23.10;99.90
25914;DHT22;13718;50.922;5.346;2023-05-07T12:45:43;23.20;99.90
25914;DHT22;13718;50.922;5.346;2023-05-07T12:48:12;23.20;99.90
25914;DHT22;13718;50.922;5.346;2023-05-07T12:50:38;23.20;99.90
25914;DHT22;13718;50.922;5.346;2023-05-07T12:53:05;23.30;99.90
25914;DHT22;13718;50.922;5.346;2023-05-07T12:55:32;23.40;99.90
25914;DHT22;13718;50.922;5.346;2023-05-07T12:58:00;23.40;99.90
25914;DHT22;13718;50.922;5.346;2023-05-07T13:02:59;23.50;99.90
25914;DHT22;13718;50.922;5.346;2023-05-07T13:05:25;23.40;99.90
25914;DHT22;13718;50.922;5.346;2023-05-07T13:07:54;23.40;99.90
25914;DHT22;13718;50.922;5.346;2023-05-07T13:10:21;23.40;99.90
25914;DHT22;13718;50.922;5.346;2023-05-07T13:12:46;23.50;99.90
25914;DHT22;13718;50.922;5.346;2023-05-07T13:15:12;23.50;99.90
25914;DHT22;13718;50.922;5.346;2023-05-07T13:17:38;23.50;99.90
25914;DHT22;13718;50.922;5.346;2023-05-07T13:20:04;23.60;99.90
25914;DHT22;13718;50.922;5.346;2023-05-07T13:22:31;23.60;99.90
25914;DHT22;13718;50.922;5.346;2023-05-07T13:24:57;23.50;99.90
25914;DHT22;13718;50.922;5.346;2023-05-07T13:27:22;23.40;99.90
25914;DHT22;13718;50.922;5.346;2023-05-07T13:29:48;23.50;99.90
25914;DHT22;13718;50.922;5.346;2023-05-07T13:32:13;23.60;99.90
25914;DHT22;13718;50.922;5.346;2023-05-07T13:34:39;23.70;99.90
25914;DHT22;13718;50.922;5.346;2023-05-07T13:37:05;23.70;99.90
25914;DHT22;13718;50.922;5.346;2023-05-07T13:39:30;23.70;99.90
25914;DHT22;13718;50.922;5.346;2023-05-07T13:41:56;23.70;99.90
25914;DHT22;13718;50.922;5.346;2023-05-07T13:44:22;23.70;99.90
25914;DHT22;13718;50.922;5.346;2023-05-07T13:46:48;23.70;99.90
25914;DHT22;13718;50.922;5.346;2023-05-07T13:49:13;23.60;99.90
25914;DHT22;13718;50.922;5.346;2023-05-07T13:51:39;23.70;99.90
25914;DHT22;13718;50.922;5.346;2023-05-07T13:54:05;23.70;99.90
25914;DHT22;13718;50.922;5.346;2023-05-07T13:56:30;23.70;99.90
25914;DHT22;13718;50.922;5.346;2023-05-07T13:58:58;23.60;99.90
25914;DHT22;13718;50.922;5.346;2023-05-07T14:01:23;23.70;99.90
25914;DHT22;13718;50.922;5.346;2023-05-07T14:03:49;23.70;99.90
25914;DHT22;13718;50.922;5.346;2023-05-07T14:06:15;23.60;99.90
25914;DHT22;13718;50.922;5.346;2023-05-07T14:08:40;23.70;99.90
25914;DHT22;13718;50.922;5.346;2023-05-07T14:11:06;23.80;99.90
25914;DHT22;13718;50.922;5.346;2023-05-07T14:13:31;23.70;99.90
25914;DHT22;13718;50.922;5.346;2023-05-07T14:15:58;23.70;99.90
25914;DHT22;13718;50.922;5.346;2023-05-07T14:18:23;23.70;99.90
25914;DHT22;13718;50.922;5.346;2023-05-07T14:20:49;23.70;99.90
25914;DHT22;13718;50.922;5.346;2023-05-07T14:23:15;23.80;99.90
25914;DHT22;13718;50.922;5.346;2023-05-07T14:25:42;23.80;99.90
25914;DHT22;13718;50.922;5.346;2023-05-07T14:28:09;23.90;99.90
25914;DHT22;13718;50.922;5.346;2023-05-07T14:30:34;23.90;99.90
25914;DHT22;13718;50.922;5.346;2023-05-07T14:33:00;24.00;99.90
25914;DHT22;13718;50.922;5.346;2023-05-07T14:35:26;24.10;99.90
25914;DHT22;13718;50.922;5.346;2023-05-07T14:37:51;24.10;99.90
25914;DHT22;13718;50.922;5.346;2023-05-07T14:40:17;24.10;99.90
25914;DHT22;13718;50.922;5.346;2023-05-07T14:42:42;23.90;99.90
25914;DHT22;13718;50.922;5.346;2023-05-07T14:45:09;23.80;99.90
25914;DHT22;13718;50.922;5.346;2023-05-07T14:47:34;23.70;99.90
25914;DHT22;13718;50.922;5.346;2023-05-07T14:50:00;23.60;99.90
25914;DHT22;13718;50.922;5.346;2023-05-07T14:52:26;23.60;99.90
25914;DHT22;13718;50.922;5.346;2023-05-07T14:54:55;23.60;99.90
25914;DHT22;13718;50.922;5.346;2023-05-07T14:57:21;23.50;99.90
25914;DHT22;13718;50.922;5.346;2023-05-07T14:59:46;23.50;99.90
25914;DHT22;13718;50.922;5.346;2023-05-07T15:02:13;23.50;99.90
25914;DHT22;13718;50.922;5.346;2023-05-07T15:04:38;23.50;99.90
25914;DHT22;13718;50.922;5.346;2023-05-07T15:07:14;23.60;99.90
25914;DHT22;13718;50.922;5.346;2023-05-07T15:09:43;23.60;99.90
25914;DHT22;13718;50.922;5.346;2023-05-07T15:12:09;23.60;99.90
25914;DHT22;13718;50.922;5.346;2023-05-07T15:14:35;23.50;99.90
25914;DHT22;13718;50.922;5.346;2023-05-07T15:17:01;23.40;99.90
25914;DHT22;13718;50.922;5.346;2023-05-07T15:19:26;23.40;99.90
25914;DHT22;13718;50.922;5.346;2023-05-07T15:21:58;23.30;99.90
25914;DHT22;13718;50.922;5.346;2023-05-07T15:24:25;23.30;99.90
25914;DHT22;13718;50.922;5.346;2023-05-07T15:26:53;23.30;99.90
25914;DHT22;13718;50.922;5.346;2023-05-07T15:29:19;23.30;99.90
25914;DHT22;13718;50.922;5.346;2023-05-07T15:31:46;23.30;99.90
25914;DHT22;13718;50.922;5.346;2023-05-07T15:34:12;23.30;99.90
25914;DHT22;13718;50.922;5.346;2023-05-07T15:36:37;23.30;99.90
25914;DHT22;13718;50.922;5.346;2023-05-07T15:39:03;23.40;99.90
25914;DHT22;13718;50.922;5.346;2023-05-07T15:41:29;23.30;99.90
25914;DHT22;13718;50.922;5.346;2023-05-07T15:43:55;23.20;99.90